Time;durP1;ratioP1;P1;durP2;ratioP2;P2;SDS_P1;SDS_P2;PMS_P1;PMS_P2;Temp;Humidity;BMP_temperature;BMP_pressure;BME280_temperature;BME280_humidity;BME280_pressure;Samples;Min_cycle;Max_cycle;Signal;HPM_P1;HPM_P2
2023/03/04 00:00:22;;;;;;;21.27;2.53;;;6.70;99.90;;;;;;4908426;29;37366;-77
2023/03/04 00:02:48;;;;;;;16.53;2.77;;;6.70;99.90;;;;;;4922941;29;38885;-77
2023/03/04 00:05:14;;;;;;;14.73;2.73;;;6.60;99.90;;;;;;4912415;29;38559;-78
2023/03/04 00:07:41;;;;;;;18.70;2.63;;;6.60;99.90;;;;;;4911228;29;37872;-78
2023/03/04 00:10:07;;;;;;;16.63;3.57;;;6.60;99.90;;;;;;4892792;29;37118;-77
2023/03/04 00:12:33;;;;;;;18.70;2.93;;;6.60;99.90;;;;;;4921469;28;37836;-78
2023/03/04 00:14:59;;;;;;;16.00;2.57;;;6.60;99.90;;;;;;4895338;29;37372;-78
2023/03/04 00:17:25;;;;;;;15.43;2.20;;;6.60;99.90;;;;;;4909098;29;38158;-77
2023/03/04 00:19:52;;;;;;;24.27;2.87;;;6.60;99.90;;;;;;4890018;29;35439;-78
2023/03/04 00:22:18;;;;;;;19.47;2.73;;;6.60;99.90;;;;;;4886765;29;38332;-78
2023/03/04 00:24:44;;;;;;;19.03;3.80;;;6.60;99.90;;;;;;4909466;29;38159;-78
2023/03/04 00:27:10;;;;;;;11.27;2.40;;;6.60;99.90;;;;;;4908195;28;39122;-78
2023/03/04 00:29:36;;;;;;;15.70;3.40;;;6.60;99.90;;;;;;4906048;29;38357;-78
2023/03/04 00:32:02;;;;;;;17.47;2.47;;;6.60;99.90;;;;;;4906028;29;38406;-78
2023/03/04 00:34:28;;;;;;;16.53;2.23;;;6.60;99.90;;;;;;4890167;29;38687;-78
2023/03/04 00:37:00;;;;;;;15.63;2.43;;;6.60;99.90;;;;;;4902004;29;39446;-78
2023/03/04 00:39:29;;;;;;;20.43;2.70;;;6.60;99.90;;;;;;4886489;29;36447;-78
2023/03/04 00:41:55;;;;;;;18.00;3.07;;;6.60;99.90;;;;;;4910750;28;39869;-78
2023/03/04 00:44:21;;;;;;;19.97;2.60;;;6.60;99.90;;;;;;4910628;28;38566;-78
2023/03/04 00:46:47;;;;;;;25.60;5.47;;;6.60;99.90;;;;;;4893951;29;36754;-78
2023/03/04 00:49:13;;;;;;;20.67;2.57;;;6.60;99.90;;;;;;4909638;28;36850;-78
2023/03/04 00:51:39;;;;;;;15.17;2.10;;;6.50;99.90;;;;;;4892816;29;36588;-78
2023/03/04 00:54:05;;;;;;;14.63;2.07;;;6.50;99.90;;;;;;4894389;29;37077;-77
2023/03/04 00:56:31;;;;;;;16.30;2.03;;;6.60;99.90;;;;;;4927306;29;37006;-78
2023/03/04 00:58:57;;;;;;;15.07;2.37;;;6.60;99.90;;;;;;4914627;29;38710;-78
2023/03/04 01:01:24;;;;;;;18.10;2.80;;;6.60;99.90;;;;;;4892347;28;38749;-78
2023/03/04 01:03:50;;;;;;;8.10;1.90;;;6.60;99.90;;;;;;4915214;28;39212;-78
2023/03/04 01:06:16;;;;;;;22.13;3.37;;;6.60;99.90;;;;;;4912434;28;38480;-78
2023/03/04 01:08:42;;;;;;;13.73;1.83;;;6.60;99.90;;;;;;4896426;29;34649;-78
2023/03/04 01:11:08;;;;;;;9.27;2.77;;;6.60;99.90;;;;;;4923497;28;37962;-78
2023/03/04 01:13:34;;;;;;;14.40;2.00;;;6.60;99.90;;;;;;4891933;29;39416;-78
2023/03/04 01:16:02;;;;;;;17.67;2.43;;;6.50;99.90;;;;;;4889740;29;39386;-78
2023/03/04 01:18:28;;;;;;;21.73;2.20;;;6.50;99.90;;;;;;4891170;29;47214;-78
2023/03/04 01:20:54;;;;;;;7.40;1.53;;;6.50;99.90;;;;;;4892458;29;38508;-78
2023/03/04 01:23:20;;;;;;;12.07;2.07;;;6.60;99.90;;;;;;4894462;29;37240;-78
2023/03/04 01:25:46;;;;;;;22.27;3.20;;;6.60;99.90;;;;;;4894527;29;38089;-79
2023/03/04 01:28:13;;;;;;;13.57;2.03;;;6.60;99.90;;;;;;4892997;28;38190;-78
2023/03/04 01:30:39;;;;;;;10.43;2.00;;;6.60;99.90;;;;;;4893134;28;39769;-79
2023/03/04 01:33:05;;;;;;;21.47;2.30;;;6.60;99.90;;;;;;4890458;28;36973;-78
2023/03/04 01:35:31;;;;;;;17.47;1.93;;;6.60;99.90;;;;;;4891698;29;36908;-78
2023/03/04 01:37:57;;;;;;;13.97;1.93;;;6.60;99.90;;;;;;4894526;29;36964;-78
2023/03/04 01:40:23;;;;;;;14.00;2.20;;;6.60;99.90;;;;;;4894955;29;39937;-78
2023/03/04 01:42:50;;;;;;;12.40;1.77;;;6.50;99.90;;;;;;4889570;29;37063;-78
2023/03/04 01:45:18;;;;;;;13.67;2.03;;;6.50;99.90;;;;;;4888302;29;36656;-78
2023/03/04 01:47:47;;;;;;;18.13;2.27;;;6.50;99.90;;;;;;4889979;29;36020;-78
2023/03/04 01:50:34;;;;;;;14.97;2.07;;;6.50;99.90;;;;;;4891469;28;39931;-78
2023/03/04 01:53:01;;;;;;;29.93;2.37;;;6.60;99.90;;;;;;4890557;29;37146;-78
2023/03/04 01:55:29;;;;;;;14.87;1.70;;;6.50;99.90;;;;;;4892031;29;47302;-78
2023/03/04 01:57:56;;;;;;;13.97;1.83;;;6.50;99.90;;;;;;4893303;29;37283;-78
2023/03/04 02:17:34;;;;;;;16.97;2.00;;;6.50;99.90;;;;;;3995833;26;20040;-83
2023/03/04 02:20:33;;;;;;;9.32;2.13;;;6.50;99.90;;;;;;4925275;28;38501;-84
2023/03/04 02:23:12;;;;;;;16.47;1.83;;;6.50;99.90;;;;;;4904187;28;48980;-83
2023/03/04 02:26:24;;;;;;;16.23;2.10;;;6.50;99.90;;;;;;4908632;29;48723;-83
2023/03/04 02:29:30;;;;;;;17.97;2.23;;;6.60;99.90;;;;;;4882085;29;48946;-82
2023/03/04 02:32:06;;;;;;;20.23;2.43;;;6.50;99.90;;;;;;4907756;29;36737;-83
2023/03/04 02:34:36;;;;;;;15.23;1.90;;;6.60;99.90;;;;;;4900555;29;48741;-84
2023/03/04 02:37:23;;;;;;;15.30;2.37;;;6.50;99.90;;;;;;4920689;28;38653;-80
2023/03/04 02:40:15;;;;;;;16.83;2.03;;;6.50;99.90;;;;;;4939599;28;39492;-83
2023/03/04 02:42:46;;;;;;;8.60;1.87;;;6.50;99.90;;;;;;4916441;28;49019;-82
2023/03/04 02:46:03;;;;;;;8.35;1.20;;;6.50;99.90;;;;;;4929432;28;40094;-82
2023/03/04 02:49:10;;;;;;;23.97;2.53;;;6.50;99.90;;;;;;4917856;28;47888;-82
2023/03/04 02:57:15;;;;;;;11.17;2.27;;;6.50;99.90;;;;;;5227985;23;20028;-83
2023/03/04 02:59:45;;;;;;;14.18;1.98;;;6.50;99.90;;;;;;5600393;23;39864;-83
2023/03/04 03:02:13;;;;;;;15.57;1.50;;;6.50;99.90;;;;;;4856762;29;38932;-80
2023/03/04 03:07:44;;;;;;;10.50;2.10;;;6.50;99.90;;;;;;1390171;26;20052;-83
2023/03/04 03:15:48;;;;;;;14.07;1.50;;;6.50;99.90;;;;;;5318865;23;20197;-83
2023/03/04 03:18:29;;;;;;;12.32;2.63;;;6.50;99.90;;;;;;4896234;29;39123;-82
2023/03/04 03:21:17;;;;;;;11.87;1.60;;;6.50;99.90;;;;;;4949453;28;38771;-82
2023/03/04 03:23:48;;;;;;;20.80;3.03;;;6.40;99.90;;;;;;4923658;29;38616;-83
2023/03/04 03:26:43;;;;;;;11.73;2.20;;;6.50;99.90;;;;;;4935406;28;38613;-82
2023/03/04 03:29:25;;;;;;;15.23;1.90;;;6.40;99.90;;;;;;4913820;28;40264;-82
2023/03/04 03:32:00;;;;;;;12.47;2.73;;;6.50;99.90;;;;;;4906133;29;38644;-83
2023/03/04 03:34:30;;;;;;;13.20;1.60;;;6.50;99.90;;;;;;4872107;29;38541;-85
2023/03/04 03:37:05;;;;;;;12.50;1.87;;;6.50;99.90;;;;;;4934516;28;36583;-83
2023/03/04 03:39:33;;;;;;;13.90;2.10;;;6.50;99.90;;;;;;4919733;28;48617;-82
2023/03/04 03:42:03;;;;;;;8.03;1.47;;;6.40;99.90;;;;;;4930786;28;39260;-82
2023/03/04 03:44:33;;;;;;;13.70;1.97;;;6.40;99.90;;;;;;4929913;28;48857;-81
2023/03/04 03:47:08;;;;;;;12.47;1.70;;;6.40;99.90;;;;;;4924591;29;37225;-81
2023/03/04 03:49:36;;;;;;;12.10;1.83;;;6.40;99.90;;;;;;4936502;29;48839;-81
2023/03/04 03:52:07;;;;;;;10.83;2.27;;;6.40;99.90;;;;;;4887794;29;38837;-80
2023/03/04 03:54:54;;;;;;;8.80;1.50;;;6.30;99.90;;;;;;4895456;29;49162;-82
2023/03/04 03:57:36;;;;;;;11.60;1.60;;;6.30;99.90;;;;;;4883562;29;38419;-80
2023/03/04 04:00:16;;;;;;;8.97;1.70;;;6.30;99.90;;;;;;4887054;29;40744;-82
2023/03/04 04:03:12;;;;;;;10.20;1.40;;;6.30;99.90;;;;;;4900402;29;40053;-82
2023/03/04 04:13:46;;;;;;;13.70;2.03;;;6.30;99.90;;;;;;5863330;23;20027;-84
2023/03/04 04:16:29;;;;;;;20.27;1.80;;;6.30;99.90;;;;;;4871689;29;37917;-83
2023/03/04 04:19:08;;;;;;;19.23;2.03;;;6.30;99.90;;;;;;4871303;29;37869;-83
2023/03/04 04:22:18;;;;;;;10.07;1.77;;;6.30;99.90;;;;;;4843868;29;50354;-83
2023/03/04 04:25:23;;;;;;;10.67;1.73;;;6.30;99.90;;;;;;4860831;29;50234;-83
2023/03/04 04:31:57;;;;;;;14.67;2.20;;;6.30;99.90;;;;;;4857009;29;38656;-81
2023/03/04 04:34:58;;;;;;;11.53;2.13;;;6.30;99.90;;;;;;4840578;29;49329;-83
2023/03/04 04:38:19;;;;;;;12.83;2.63;;;6.20;99.90;;;;;;4886491;29;39851;-80
2023/03/04 04:41:46;;;;;;;11.33;2.80;;;6.30;99.90;;;;;;4850798;29;50384;-82
2023/03/04 04:44:37;;;;;;;13.13;3.27;;;6.20;99.90;;;;;;4848969;29;50085;-84
2023/03/04 04:47:33;;;;;;;15.23;2.53;;;6.20;99.90;;;;;;4825610;29;39194;-82
2023/03/04 04:50:09;;;;;;;16.27;2.37;;;6.20;99.90;;;;;;4850186;29;39148;-81
2023/03/04 04:52:42;;;;;;;15.80;2.43;;;6.20;99.90;;;;;;4869444;29;49390;-83
2023/03/04 04:55:43;;;;;;;10.83;2.00;;;6.20;99.90;;;;;;4892358;29;39661;-81
2023/03/04 04:58:15;;;;;;;13.07;1.95;;;6.20;99.90;;;;;;4898530;29;40138;-81
2023/03/04 05:00:43;;;;;;;13.82;1.75;;;6.20;99.90;;;;;;4892734;29;38985;-82
2023/03/04 05:03:18;;;;;;;13.73;1.70;;;6.20;99.90;;;;;;4872581;29;40060;-83
2023/03/04 05:11:41;;;;;;;11.10;2.07;;;6.00;99.90;;;;;;3226861;26;20129;-82
2023/03/04 05:14:13;;;;;;;6.33;1.33;;;6.10;99.90;;;;;;4898397;29;39531;-81
2023/03/04 05:17:18;;;;;;;7.43;1.33;;;6.10;99.90;;;;;;4903746;29;37467;-82
2023/03/04 05:20:34;;;;;;;9.53;2.03;;;6.10;99.90;;;;;;4871151;29;40277;-82
2023/03/04 05:28:18;;;;;;;16.00;1.97;;;6.20;99.90;;;;;;5047602;23;2163192;-83
2023/03/04 05:31:01;;;;;;;13.18;1.60;;;6.20;99.90;;;;;;4905911;28;38004;-83
2023/03/04 05:34:08;;;;;;;8.37;1.27;;;6.20;99.90;;;;;;4898451;28;38846;-83
2023/03/04 05:47:22;;;;;;;10.67;2.10;;;6.10;99.90;;;;;;5433379;23;20056;-82
2023/03/04 05:50:05;;;;;;;12.23;2.17;;;6.10;99.90;;;;;;4930353;29;37780;-81
2023/03/04 05:52:47;;;;;;;16.63;1.93;;;6.10;99.90;;;;;;4878334;29;48757;-80
2023/03/04 05:55:16;;;;;;;11.47;2.00;;;6.00;99.90;;;;;;4896608;29;38877;-81
2023/03/04 05:58:22;;;;;;;11.10;1.20;;;6.00;99.90;;;;;;4919583;29;38480;-82
2023/03/04 06:00:56;;;;;;;11.40;1.40;;;6.00;99.90;;;;;;4913169;29;49354;-81
2023/03/04 06:03:42;;;;;;;12.37;1.87;;;6.00;99.90;;;;;;4917960;29;40399;-81
2023/03/04 06:06:25;;;;;;;12.17;1.90;;;6.00;99.90;;;;;;4903143;29;38707;-84
2023/03/04 06:09:23;;;;;;;10.70;1.63;;;6.00;99.90;;;;;;4933382;29;49481;-83
2023/03/04 06:12:11;;;;;;;10.90;1.87;;;6.00;99.90;;;;;;4895704;29;50160;-83
2023/03/04 06:20:17;;;;;;;12.27;1.83;;;6.10;99.90;;;;;;5250485;23;20059;-82
2023/03/04 06:22:57;;;;;;;11.43;1.83;;;6.10;99.90;;;;;;4905106;29;48637;-83
2023/03/04 06:25:35;;;;;;;13.07;1.63;;;6.10;99.90;;;;;;4946921;28;39989;-82
2023/03/04 06:28:30;;;;;;;7.33;1.40;;;6.10;99.90;;;;;;4901057;28;39849;-82
2023/03/04 06:31:12;;;;;;;8.13;1.57;;;6.20;99.90;;;;;;4932030;28;39403;-83
2023/03/04 06:33:42;;;;;;;14.93;2.00;;;6.20;99.90;;;;;;4944295;28;50149;-83
2023/03/04 06:36:15;;;;;;;7.30;1.30;;;6.20;99.90;;;;;;4953156;29;39394;-82
2023/03/04 06:38:47;;;;;;;12.20;2.28;;;6.20;99.90;;;;;;4918696;29;40405;-82
2023/03/04 06:41:23;;;;;;;10.17;2.27;;;6.30;99.90;;;;;;4915096;28;38688;-80
2023/03/04 06:44:16;;;;;;;14.87;1.77;;;6.30;99.90;;;;;;4955005;28;38592;-82
2023/03/04 06:46:49;;;;;;;9.33;1.80;;;6.20;99.90;;;;;;4951462;28;48944;-82
2023/03/04 06:49:16;;;;;;;9.50;1.80;;;6.20;99.90;;;;;;4938434;29;39804;-81
2023/03/04 06:51:52;;;;;;;13.47;1.93;;;6.20;99.90;;;;;;4951696;28;38550;-83
2023/03/04 06:54:21;;;;;;;11.77;2.10;;;6.20;99.90;;;;;;4950124;28;37882;-82
2023/03/04 06:57:01;;;;;;;11.23;2.03;;;6.10;99.90;;;;;;4905315;28;38439;-82
2023/03/04 06:59:29;;;;;;;15.40;2.03;;;6.00;99.90;;;;;;4902990;28;48591;-82
2023/03/04 07:02:05;;;;;;;9.07;1.83;;;6.00;99.90;;;;;;4925892;29;36743;-83
2023/03/04 07:04:37;;;;;;;9.17;1.87;;;6.10;99.90;;;;;;4949536;28;50151;-80
2023/03/04 07:07:13;;;;;;;8.27;1.90;;;6.10;99.90;;;;;;4929996;29;39987;-83
2023/03/04 07:10:25;;;;;;;11.17;1.93;;;6.10;99.90;;;;;;4937778;28;39504;-83
2023/03/04 07:13:15;;;;;;;7.70;1.77;;;6.10;99.90;;;;;;4924431;28;49257;-83
2023/03/04 07:19:21;;;;;;;10.37;1.90;;;6.10;99.90;;;;;;5339610;23;20041;-83
2023/03/04 07:22:12;;;;;;;14.57;1.87;;;6.20;99.90;;;;;;4891736;29;39944;-84
2023/03/04 07:25:12;;;;;;;7.57;1.80;;;6.20;99.90;;;;;;4898114;29;39327;-84
2023/03/04 07:27:58;;;;;;;15.50;2.42;;;6.30;99.90;;;;;;4897664;29;50046;-82
2023/03/04 07:30:28;;;;;;;11.38;2.15;;;6.30;99.90;;;;;;4903696;29;40311;-81
2023/03/04 07:33:00;;;;;;;12.30;2.50;;;6.30;99.90;;;;;;4910656;29;38788;-81
2023/03/04 07:35:28;;;;;;;13.23;3.17;;;6.30;99.90;;;;;;4906818;29;37000;-81
2023/03/04 07:38:07;;;;;;;12.67;3.50;;;6.40;99.90;;;;;;4913694;29;38166;-82
2023/03/04 07:48:49;;;;;;;12.83;2.03;;;6.70;99.90;;;;;;5090665;23;20040;-83
2023/03/04 07:55:03;;;;;;;9.33;2.30;;;6.90;99.90;;;;;;5802550;23;20032;-81
2023/03/04 07:57:42;;;;;;;11.18;1.58;;;6.80;99.90;;;;;;4956685;23;37044;-82
2023/03/04 08:00:17;;;;;;;7.53;1.53;;;6.80;99.90;;;;;;4931687;28;37562;-82
2023/03/04 08:02:46;;;;;;;9.83;1.60;;;6.70;99.90;;;;;;4941516;28;40414;-81
2023/03/04 08:05:52;;;;;;;9.37;1.90;;;6.60;99.90;;;;;;4929463;28;38684;-84
2023/03/04 08:08:25;;;;;;;8.47;1.40;;;6.70;99.90;;;;;;4933539;23;39007;-84
2023/03/04 08:11:59;;;;;;;8.83;1.10;;;6.80;99.90;;;;;;4904090;29;37336;-82
2023/03/04 09:15:02;;;;;;;3.50;0.60;;;7.80;99.90;;;;;;5562351;23;20198;-80
2023/03/04 09:17:30;;;;;;;3.50;0.80;;;7.40;99.90;;;;;;4932644;28;40334;-81
2023/03/04 09:25:13;;;;;;;1.70;0.67;;;7.00;99.90;;;;;;5603491;23;20059;-79
2023/03/04 09:27:40;;;;;;;4.80;0.90;;;7.00;99.90;;;;;;4890282;28;40614;-81
2023/03/04 09:32:58;;;;;;;3.30;0.80;;;7.10;99.90;;;;;;5117290;23;20039;-80
2023/03/04 09:46:09;;;;;;;4.43;0.93;;;8.10;99.90;;;;;;4728419;26;20028;-79
2023/03/04 09:49:05;;;;;;;2.13;0.50;;;8.10;99.90;;;;;;4896502;29;46965;-79
2023/03/04 09:52:15;;;;;;;2.83;0.80;;;7.90;99.90;;;;;;4927077;28;46997;-82
2023/03/04 10:00:45;;;;;;;4.83;0.90;;;7.40;99.90;;;;;;5201745;23;20060;-82
2023/03/04 10:03:26;;;;;;;5.70;1.57;;;7.40;99.90;;;;;;4934062;29;39940;-83
2023/03/04 10:06:01;;;;;;;2.53;0.80;;;7.30;99.90;;;;;;4921841;29;37862;-80
2023/03/04 10:15:01;;;;;;;3.70;1.20;;;7.70;99.90;;;;;;5535315;23;20040;-80
2023/03/04 10:40:40;;;;;;;5.97;1.00;;;8.40;99.90;;;;;;4945918;23;20044;-81
2023/03/04 10:43:34;;;;;;;5.97;0.90;;;8.80;99.90;;;;;;4955848;28;37744;-82
2023/03/04 10:46:28;;;;;;;2.77;0.70;;;8.70;99.90;;;;;;4943835;28;39178;-82
2023/03/04 10:56:57;;;;;;;2.07;0.60;;;7.90;99.90;;;;;;5012869;23;19911;-80
2023/03/04 10:59:42;;;;;;;2.97;1.00;;;7.90;99.90;;;;;;4942640;23;38492;-79
2023/03/04 11:02:22;;;;;;;2.20;0.73;;;7.90;99.90;;;;;;4921854;29;39121;-79
2023/03/04 11:04:54;;;;;;;2.00;0.63;;;7.70;99.90;;;;;;4926578;29;36896;-79
2023/03/04 11:07:23;;;;;;;3.25;0.95;;;7.70;99.90;;;;;;4917117;29;40283;-79
2023/03/04 11:15:03;;;;;;;5.67;0.80;;;7.80;99.90;;;;;;5069834;23;20118;-81
2023/03/04 11:17:47;;;;;;;4.53;1.60;;;8.10;99.90;;;;;;4905261;29;37514;-82
2023/03/04 11:20:30;;;;;;;5.97;1.20;;;8.20;99.90;;;;;;4898717;29;38609;-81
2023/03/04 11:23:13;;;;;;;5.33;1.43;;;8.30;99.90;;;;;;4904382;29;38904;-79
2023/03/04 11:25:47;;;;;;;5.67;1.03;;;8.60;99.90;;;;;;4897064;29;48999;-79
2023/03/04 11:28:23;;;;;;;6.53;1.30;;;9.00;99.90;;;;;;4894956;29;39150;-80
2023/03/04 11:31:02;;;;;;;6.60;1.37;;;9.10;99.90;;;;;;4900398;29;39101;-80
2023/03/04 11:33:44;;;;;;;5.30;1.47;;;9.00;99.90;;;;;;4891435;29;46323;-79
2023/03/04 11:36:41;;;;;;;10.07;1.40;;;8.80;99.90;;;;;;4900948;29;37276;-79
2023/03/04 11:39:22;;;;;;;4.60;1.07;;;8.90;99.90;;;;;;4896201;29;37957;-80
2023/03/04 11:42:18;;;;;;;6.27;1.50;;;9.10;99.90;;;;;;4877109;29;50313;-80
2023/03/04 11:51:47;;;;;;;6.43;1.70;;;9.80;99.90;;;;;;5824780;23;20021;-79
2023/03/04 11:54:34;;;;;;;8.63;0.97;;;9.40;99.90;;;;;;4928105;29;40104;-79
2023/03/04 11:57:27;;;;;;;5.03;0.80;;;9.20;99.90;;;;;;4911209;29;38790;-76
2023/03/04 12:00:19;;;;;;;6.18;1.05;;;9.00;99.90;;;;;;4903996;29;48119;-81
2023/03/04 12:03:02;;;;;;;3.47;0.70;;;9.10;99.90;;;;;;4911300;29;47911;-80
2023/03/04 12:05:43;;;;;;;3.00;0.70;;;9.30;99.90;;;;;;4911618;29;48565;-80
2023/03/04 12:08:51;;;;;;;3.50;0.90;;;9.40;99.90;;;;;;4918044;29;37232;-79
2023/03/04 12:11:26;;;;;;;4.23;0.80;;;9.40;99.90;;;;;;4894382;29;37048;-81
2023/03/04 12:14:22;;;;;;;4.27;1.10;;;9.10;99.90;;;;;;4909844;29;38107;-80
2023/03/04 12:16:54;;;;;;;6.00;0.80;;;9.30;99.90;;;;;;4906372;29;47116;-79
2023/03/04 12:20:07;;;;;;;5.40;0.70;;;9.60;99.90;;;;;;4904722;29;38528;-80
2023/03/04 12:22:49;;;;;;;2.38;0.77;;;10.30;99.90;;;;;;4901067;29;48905;-79
2023/03/04 12:26:07;;;;;;;5.00;0.75;;;10.60;99.90;;;;;;4910692;29;38725;-79
2023/03/04 12:28:54;;;;;;;2.67;0.80;;;10.40;99.90;;;;;;4862950;29;47642;-80
2023/03/04 12:31:21;;;;;;;2.93;0.80;;;10.00;99.90;;;;;;4904817;29;39719;-80
2023/03/04 12:34:18;;;;;;;6.28;0.90;;;9.90;99.90;;;;;;4911322;29;36983;-79
2023/03/04 12:37:17;;;;;;;3.45;0.70;;;10.10;99.90;;;;;;4894674;29;48908;-79
2023/03/04 12:39:46;;;;;;;6.43;0.80;;;10.20;99.90;;;;;;4899494;29;47301;-80
2023/03/04 12:42:44;;;;;;;10.60;2.53;;;9.90;99.90;;;;;;4909917;29;36999;-79
2023/03/04 12:45:27;;;;;;;6.77;1.00;;;9.40;99.90;;;;;;4919112;29;36409;-78
2023/03/04 12:48:12;;;;;;;;;;;9.00;99.90;;;;;;4901785;29;37878;-79
2023/03/04 12:50:58;;;;;;;8.07;1.10;;;8.90;99.90;;;;;;4926134;28;49573;-79
2023/03/04 12:53:39;;;;;;;2.87;0.67;;;8.80;99.90;;;;;;4910340;29;37267;-80
2023/03/04 12:56:06;;;;;;;5.50;1.00;;;8.60;99.90;;;;;;4911582;29;36272;-79
2023/03/04 12:58:41;;;;;;;5.67;0.80;;;8.50;99.90;;;;;;4902503;29;38224;-81
2023/03/04 13:01:35;;;;;;;8.63;0.97;;;8.50;99.90;;;;;;4902370;29;38753;-79
2023/03/04 13:04:21;;;;;;;2.03;0.90;;;8.40;99.90;;;;;;4906832;29;37255;-79
2023/03/04 13:06:55;;;;;;;4.90;0.90;;;8.20;99.90;;;;;;4919825;29;50259;-79
2023/03/04 13:09:40;;;;;;;4.17;1.03;;;8.20;99.90;;;;;;4925082;29;39459;-80
2023/03/04 13:12:24;;;;;;;3.00;0.70;;;8.30;99.90;;;;;;4901986;29;37543;-79
2023/03/04 13:15:06;;;;;;;3.60;0.70;;;8.80;99.90;;;;;;4914839;29;39422;-79
2023/03/04 13:17:38;;;;;;;3.10;0.60;;;8.50;99.90;;;;;;4930491;29;49268;-80
2023/03/04 13:20:38;;;;;;;1.35;0.50;;;8.30;99.90;;;;;;4913449;29;37586;-79
2023/03/04 13:23:13;;;;;;;1.90;0.90;;;8.50;99.90;;;;;;4906277;29;47185;-79
2023/03/04 13:25:48;;;;;;;3.63;0.77;;;8.60;99.90;;;;;;4907055;29;36985;-80
2023/03/04 13:28:29;;;;;;;1.10;0.60;;;8.60;99.90;;;;;;4902109;29;36238;-81
2023/03/04 13:30:58;;;;;;;3.17;0.80;;;8.30;99.90;;;;;;4919881;29;39647;-80
2023/03/04 13:33:36;;;;;;;4.43;0.60;;;8.30;99.90;;;;;;4910949;29;37387;-78
2023/03/04 13:36:25;;;;;;;4.20;0.60;;;8.20;99.90;;;;;;4904353;29;38028;-79
2023/03/04 13:38:59;;;;;;;7.10;1.10;;;8.20;99.90;;;;;;4888653;29;36056;-79
2023/03/04 13:41:54;;;;;;;4.00;0.70;;;8.20;99.90;;;;;;4905779;29;38580;-79
2023/03/04 13:44:42;;;;;;;4.73;0.70;;;8.10;99.90;;;;;;4893477;29;39331;-78
2023/03/04 13:47:21;;;;;;;4.20;0.60;;;8.20;99.90;;;;;;4903342;29;37962;-79
2023/03/04 13:49:47;;;;;;;1.60;0.50;;;8.30;99.90;;;;;;4891912;29;36270;-78
2023/03/04 13:52:43;;;;;;;6.73;1.00;;;8.50;99.90;;;;;;4885194;29;37892;-80
2023/03/04 13:55:39;;;;;;;12.50;1.20;;;9.00;99.90;;;;;;4876810;29;38098;-79
2023/03/04 13:58:21;;;;;;;5.00;1.10;;;9.20;99.90;;;;;;4909773;29;37269;-79
2023/03/04 14:00:52;;;;;;;;;;;9.30;99.90;;;;;;4886624;29;36359;-77
2023/03/04 14:03:26;;;;;;;7.23;0.90;;;9.40;99.90;;;;;;4911912;29;39917;-77
2023/03/04 14:06:17;;;;;;;9.37;1.57;;;9.70;99.90;;;;;;4907120;29;38423;-78
2023/03/04 14:08:45;;;;;;;4.23;1.00;;;9.80;99.90;;;;;;4902942;29;49764;-77
2023/03/04 14:11:14;;;;;;;6.17;1.03;;;9.60;99.90;;;;;;4906715;29;36987;-77
2023/03/04 14:13:41;;;;;;;9.27;1.17;;;9.50;99.90;;;;;;4904533;29;39000;-77
2023/03/04 14:16:07;;;;;;;4.60;0.90;;;9.30;99.90;;;;;;4904888;29;38303;-78
2023/03/04 14:18:34;;;;;;;3.33;0.90;;;9.00;99.90;;;;;;4912829;29;38766;-77
2023/03/04 14:21:00;;;;;;;8.77;1.90;;;8.80;99.90;;;;;;4909671;29;37956;-78
2023/03/04 14:23:35;;;;;;;4.00;0.73;;;8.60;99.90;;;;;;4908752;29;38813;-79
2023/03/04 14:26:12;;;;;;;8.87;1.10;;;8.60;99.90;;;;;;4888993;29;37830;-77
2023/03/04 14:28:46;;;;;;;5.10;1.20;;;8.50;99.90;;;;;;4883224;29;46987;-75
2023/03/04 14:31:19;;;;;;;5.83;1.27;;;8.40;99.90;;;;;;4904586;29;37033;-78
2023/03/04 14:33:48;;;;;;;7.57;1.60;;;8.30;99.90;;;;;;4906518;29;38328;-77
2023/03/04 14:36:20;;;;;;;7.77;1.70;;;8.20;99.90;;;;;;4910018;29;38138;-79
2023/03/04 14:38:57;;;;;;;9.95;1.75;;;8.30;99.90;;;;;;4922847;29;38538;-79
2023/03/04 14:41:37;;;;;;;8.63;1.53;;;8.60;99.90;;;;;;4900899;29;37551;-79
2023/03/04 14:44:36;;;;;;;9.60;1.60;;;8.90;99.90;;;;;;4912641;29;38025;-80
2023/03/04 14:47:27;;;;;;;10.73;1.67;;;9.30;99.90;;;;;;4902575;29;47196;-79
2023/03/04 14:49:53;;;;;;;12.40;1.80;;;9.50;99.90;;;;;;4935492;23;39332;-78
2023/03/04 14:52:50;;;;;;;10.87;1.83;;;9.40;99.90;;;;;;4913258;29;37753;-80
2023/03/04 14:55:27;;;;;;;10.93;1.77;;;9.30;99.90;;;;;;4919575;29;39239;-79
2023/03/04 14:58:20;;;;;;;8.90;1.97;;;9.00;99.90;;;;;;4921078;29;37483;-79
2023/03/04 15:00:48;;;;;;;10.90;1.47;;;8.70;99.90;;;;;;4904939;29;47241;-79
2023/03/04 15:03:23;;;;;;;11.10;1.67;;;8.70;99.90;;;;;;4914382;29;36102;-79
2023/03/04 15:05:51;;;;;;;13.77;2.40;;;8.70;99.90;;;;;;4921568;29;38109;-78
2023/03/04 15:08:22;;;;;;;13.13;2.70;;;8.70;99.90;;;;;;4921214;29;37207;-79
2023/03/04 15:11:00;;;;;;;15.47;3.90;;;8.60;99.90;;;;;;4916011;29;39609;-80
2023/03/04 15:13:48;;;;;;;17.57;3.80;;;8.60;99.90;;;;;;4915483;29;36006;-79
2023/03/04 15:16:17;;;;;;;18.60;3.70;;;8.50;99.90;;;;;;4921093;28;38894;-80
2023/03/04 15:19:24;;;;;;;10.03;2.93;;;8.50;99.90;;;;;;4922688;29;39050;-79
2023/03/04 15:22:01;;;;;;;9.83;1.57;;;8.50;99.90;;;;;;4984657;23;47443;-81
2023/03/04 15:24:30;;;;;;;15.53;1.43;;;8.30;99.90;;;;;;4879180;29;48352;-81
2023/03/04 15:26:58;;;;;;;10.27;1.77;;;8.40;99.90;;;;;;4897121;29;38632;-80
2023/03/04 15:29:24;;;;;;;10.00;2.00;;;8.30;99.90;;;;;;4921970;29;38235;-81
2023/03/04 15:31:51;;;;;;;19.80;2.40;;;8.40;99.90;;;;;;4910005;29;38223;-81
2023/03/04 15:34:21;;;;;;;9.10;1.90;;;8.30;99.90;;;;;;4910936;29;36228;-81
2023/03/04 15:36:57;;;;;;;13.27;1.70;;;8.30;99.90;;;;;;4925065;29;38878;-81
2023/03/04 15:39:26;;;;;;;16.30;1.97;;;8.20;99.90;;;;;;4908050;29;37287;-81
2023/03/04 15:41:56;;;;;;;15.40;2.93;;;8.10;99.90;;;;;;4914657;29;39579;-80
2023/03/04 15:44:33;;;;;;;13.33;1.97;;;8.20;99.90;;;;;;4913228;29;36066;-81
2023/03/04 15:47:00;;;;;;;12.67;2.07;;;8.20;99.90;;;;;;4894282;29;40348;-81
2023/03/04 15:49:36;;;;;;;13.97;2.10;;;8.30;99.90;;;;;;4905940;29;38050;-81
2023/03/04 15:52:04;;;;;;;15.57;2.90;;;8.30;99.90;;;;;;4930436;28;39595;-80
2023/03/04 15:54:35;;;;;;;18.60;2.97;;;8.30;99.90;;;;;;4917413;29;37012;-80
2023/03/04 15:57:07;;;;;;;19.63;2.40;;;8.20;99.90;;;;;;4905321;29;39551;-80
2023/03/04 15:59:40;;;;;;;13.70;2.37;;;8.10;99.90;;;;;;4907340;29;39637;-81
2023/03/04 16:02:15;;;;;;;;;;;8.00;99.90;;;;;;4911592;29;40683;-81
2023/03/04 16:04:41;;;;;;;12.67;1.83;;;7.90;99.90;;;;;;4916041;29;37876;-80
2023/03/04 16:07:19;;;;;;;13.53;1.40;;;7.90;99.90;;;;;;4889296;29;39471;-80
2023/03/04 16:09:56;;;;;;;14.90;1.90;;;7.70;99.90;;;;;;4928788;29;37922;-81
2023/03/04 16:12:25;;;;;;;16.87;2.43;;;7.60;99.90;;;;;;4914931;29;37573;-82
2023/03/04 16:14:54;;;;;;;14.30;2.00;;;7.50;99.90;;;;;;4936696;28;40376;-80
2023/03/04 16:17:24;;;;;;;10.77;1.97;;;7.50;99.90;;;;;;4912717;29;37715;-81
2023/03/04 16:20:16;;;;;;;15.00;2.03;;;7.50;99.90;;;;;;4928457;28;41703;-81
2023/03/04 16:23:14;;;;;;;19.37;2.90;;;7.60;99.90;;;;;;4939678;23;48769;-79
2023/03/04 16:25:47;;;;;;;23.93;2.60;;;7.60;99.90;;;;;;4929916;28;47996;-81
2023/03/04 16:28:21;;;;;;;13.90;3.23;;;7.60;99.90;;;;;;4922451;28;42023;-80
2023/03/04 16:31:22;;;;;;;13.87;2.63;;;7.60;99.90;;;;;;4930421;28;38878;-82
2023/03/04 16:33:58;;;;;;;15.47;3.10;;;7.50;99.90;;;;;;4938031;28;49570;-82
2023/03/04 16:36:28;;;;;;;15.20;2.10;;;7.50;99.90;;;;;;4935254;28;36217;-82
2023/03/04 16:39:18;;;;;;;;;;;;;;;;;;;;;
2023/03/04 16:42:18;;;;;;;9.35;1.90;;;7.60;99.90;;;;;;4911172;28;50013;-79
2023/03/04 16:45:23;;;;;;;13.10;2.23;;;7.70;99.90;;;;;;4872556;29;47610;-79
2023/03/04 16:48:05;;;;;;;15.07;2.13;;;7.70;99.90;;;;;;4927440;28;49911;-79
2023/03/04 16:51:11;;;;;;;8.83;2.00;;;7.60;99.90;;;;;;4897877;28;40358;-80
2023/03/04 16:53:58;;;;;;;16.10;4.17;;;7.60;99.90;;;;;;4917736;28;49484;-81
2023/03/04 16:56:37;;;;;;;13.83;2.20;;;7.50;99.90;;;;;;4927004;28;50964;-81
2023/03/04 16:59:28;;;;;;;14.37;2.43;;;7.50;99.90;;;;;;4910694;28;36812;-81
2023/03/04 17:02:18;;;;;;;19.73;3.07;;;7.50;99.90;;;;;;4948300;28;39569;-82
2023/03/04 17:04:50;;;;;;;9.33;1.60;;;7.50;99.90;;;;;;4927651;28;47497;-80
2023/03/04 17:07:32;;;;;;;11.07;1.87;;;7.40;99.90;;;;;;4933321;23;48638;-80
2023/03/04 17:09:58;;;;;;;7.40;1.47;;;7.30;99.90;;;;;;4918949;29;37401;-80
2023/03/04 17:12:24;;;;;;;9.57;2.30;;;7.20;99.90;;;;;;4915898;29;37500;-80
2023/03/04 17:14:50;;;;;;;11.87;1.77;;;7.10;99.90;;;;;;4911805;29;39157;-81
2023/03/04 17:17:16;;;;;;;15.57;1.90;;;7.00;99.90;;;;;;4899871;29;37674;-80
2023/03/04 17:19:42;;;;;;;11.17;2.20;;;7.00;99.90;;;;;;4906946;29;36513;-80
2023/03/04 17:22:09;;;;;;;10.27;2.60;;;6.90;99.90;;;;;;4919224;29;37883;-80
2023/03/04 17:24:35;;;;;;;17.47;2.20;;;6.80;99.90;;;;;;4930859;29;39015;-80
2023/03/04 17:27:01;;;;;;;16.67;1.90;;;6.80;99.90;;;;;;4926858;29;36621;-81
2023/03/04 17:29:27;;;;;;;12.10;2.27;;;6.70;99.90;;;;;;4921113;29;35996;-81
2023/03/04 17:31:53;;;;;;;8.37;1.73;;;6.50;99.90;;;;;;4922862;29;39497;-81